Time;durP1;ratioP1;P1;durP2;ratioP2;P2;SDS_P1;SDS_P2;PMS_P1;PMS_P2;Temp;Humidity;BMP_temperature;BMP_pressure;BME280_temperature;BME280_humidity;BME280_pressure;Samples;Min_cycle;Max_cycle;Signal;HPM_P1;HPM_P2
2022/05/11 00:01:52;;;;;;;;;;;;;;;12.63;98.75;100232.59;6126068;23;19917;-89
2022/05/11 00:04:18;;;;;;;;;;;;;;;12.55;99.81;100236.81;6127507;23;19927;-89
2022/05/11 00:06:43;;;;;;;;;;;;;;;12.56;99.28;100232.81;6153619;23;19919;-89
2022/05/11 00:09:08;;;;;;;;;;;;;;;12.54;98.54;100232.47;6125972;23;19912;-89
2022/05/11 00:11:34;;;;;;;;;;;;;;;12.53;99.06;100234.50;6153673;23;19919;-89
2022/05/11 00:13:59;;;;;;;;;;;;;;;12.52;99.21;100237.72;6127547;23;19920;-87
2022/05/11 00:16:25;;;;;;;;;;;;;;;12.48;100.00;100231.47;6127212;23;19923;-87
2022/05/11 00:18:51;;;;;;;;;;;;;;;12.42;100.00;100233.25;6126531;23;19913;-87
2022/05/11 00:21:16;;;;;;;;;;;;;;;12.39;100.00;100234.94;6127774;23;19960;-86
2022/05/11 00:23:42;;;;;;;;;;;;;;;12.33;100.00;100225.59;6153195;23;19909;-87
2022/05/11 00:26:07;;;;;;;;;;;;;;;12.29;100.00;100229.69;6153656;23;19959;-87
2022/05/11 00:28:33;;;;;;;;;;;;;;;12.28;100.00;100228.13;6153585;23;19919;-87
2022/05/11 00:30:58;;;;;;;;;;;;;;;12.27;100.00;100234.91;6127273;23;19952;-86
2022/05/11 00:33:24;;;;;;;;;;;;;;;12.23;100.00;100229.47;6153102;23;19912;-89
2022/05/11 00:35:50;;;;;;;;;;;;;;;12.20;100.00;100226.78;6127763;23;19916;-89
2022/05/11 00:38:15;;;;;;;;;;;;;;;12.19;100.00;100223.22;6152784;23;19912;-90
2022/05/11 00:40:42;;;;;;;;;;;;;;;12.18;100.00;100226.44;6103112;23;19918;-89
2022/05/11 00:43:08;;;;;;;;;;;;;;;12.22;100.00;100229.91;6127350;23;19983;-89
2022/05/11 00:45:34;;;;;;;;;;;;;;;12.23;99.92;100225.91;6127210;23;20340;-88
2022/05/11 00:49:33;;;;;;;;;;;;;;;12.25;100.00;100212.34;6153466;23;19908;-89
2022/05/11 00:50:50;;;;;;;;;;;;;;;12.18;100.00;100223.66;6153465;23;19920;-87
2022/05/11 00:53:16;;;;;;;;;;;;;;;12.21;100.00;100222.81;6152131;23;19916;-89
2022/05/11 00:55:42;;;;;;;;;;;;;;;12.12;100.00;100224.25;6152890;23;20307;-89
2022/05/11 00:58:10;;;;;;;;;;;;;;;12.05;100.00;100223.69;6102440;23;19909;-89
2022/05/11 01:00:36;;;;;;;;;;;;;;;12.03;100.00;100226.88;6153520;23;19920;-89
2022/05/11 01:03:02;;;;;;;;;;;;;;;12.02;99.76;100225.31;6146342;23;19920;-89
2022/05/11 01:05:27;;;;;;;;;;;;;;;11.98;100.00;100221.09;6123553;23;19960;-89
2022/05/11 01:07:54;;;;;;;;;;;;;;;11.98;100.00;100230.19;6124157;23;19944;-88
2022/05/11 01:10:19;;;;;;;;;;;;;;;11.98;99.99;100227.41;6122917;23;20024;-89
2022/05/11 01:12:45;;;;;;;;;;;;;;;11.90;99.52;100222.50;6097968;23;20175;-87
2022/05/11 01:15:12;;;;;;;;;;;;;;;11.81;100.00;100223.16;6097189;23;20000;-87
2022/05/11 01:17:38;;;;;;;;;;;;;;;11.80;100.00;100224.41;6123183;23;19913;-86
2022/05/11 01:20:15;;;;;;;;;;;;;;;11.80;100.00;100226.38;6123951;23;19924;-87
2022/05/11 01:22:46;;;;;;;;;;;;;;;11.76;100.00;100220.16;6123867;23;20643;-87
2022/05/11 01:25:11;;;;;;;;;;;;;;;11.72;100.00;100217.47;6098145;23;19920;-87
2022/05/11 01:27:46;;;;;;;;;;;;;;;11.74;100.00;100219.81;6123750;23;19987;-86
2022/05/11 01:30:12;;;;;;;;;;;;;;;11.70;100.00;100217.09;6122687;23;19919;-89
2022/05/11 01:32:39;;;;;;;;;;;;;;;11.71;100.00;100224.22;6123704;23;19987;-88
2022/05/11 01:35:16;;;;;;;;;;;;;;;11.66;100.00;100228.31;6123189;23;19913;-88
2022/05/11 01:37:47;;;;;;;;;;;;;;;11.70;100.00;100228.22;6123083;23;20236;-88
2022/05/11 01:40:12;;;;;;;;;;;;;;;11.60;100.00;100232.09;6122746;23;19913;-88
2022/05/11 01:42:38;;;;;;;;;;;;;;;11.61;100.00;100230.84;6122253;23;19909;-88
2022/05/11 01:45:03;;;;;;;;;;;;;;;11.58;100.00;100231.72;6123697;23;19948;-89
2022/05/11 01:47:29;;;;;;;;;;;;;;;11.54;100.00;100228.25;6123058;23;19920;-88
2022/05/11 01:49:54;;;;;;;;;;;;;;;11.47;100.00;100225.69;6122561;23;20247;-89
2022/05/11 01:52:19;;;;;;;;;;;;;;;11.42;100.00;100229.00;6122907;23;19916;-87
2022/05/11 01:54:46;;;;;;;;;;;;;;;11.43;100.00;100231.34;6096647;23;19995;-86
2022/05/11 01:57:11;;;;;;;;;;;;;;;11.46;100.00;100224.91;6123410;23;19917;-85
2022/05/11 01:59:37;;;;;;;;;;;;;;;11.52;100.00;100233.50;6122717;23;19920;-86
2022/05/11 02:02:02;;;;;;;;;;;;;;;11.48;100.00;100236.38;6122963;23;20331;-86
2022/05/11 02:07:50;;;;;;;;;;;;;;;11.40;100.00;100237.78;6062568;23;19952;-88
2022/05/11 02:10:16;;;;;;;;;;;;;;;11.38;100.00;100236.66;6039342;23;19918;-86
2022/05/11 02:12:41;;;;;;;;;;;;;;;11.36;100.00;100230.75;6097035;23;19920;-85
2022/05/11 02:15:08;;;;;;;;;;;;;;;11.36;100.00;100236.31;6122984;23;19913;-85
2022/05/11 02:17:33;;;;;;;;;;;;;;;11.33;100.00;100237.16;6122795;23;19936;-85
2022/05/11 02:19:58;;;;;;;;;;;;;;;11.37;100.00;100232.31;6123110;23;19912;-86
2022/05/11 02:22:24;;;;;;;;;;;;;;;11.34;100.00;100233.19;6098947;23;19987;-86
2022/05/11 02:24:49;;;;;;;;;;;;;;;11.30;100.00;100232.50;6125161;23;19932;-86
2022/05/11 02:27:15;;;;;;;;;;;;;;;11.24;100.00;100235.78;6125764;23;20691;-85
2022/05/11 02:29:41;;;;;;;;;;;;;;;11.19;100.00;100239.13;6125566;23;19913;-85
2022/05/11 02:32:06;;;;;;;;;;;;;;;11.15;100.00;100238.44;6124143;23;19916;-85
2022/05/11 02:37:16;;;;;;;;;;;;;;;11.13;100.00;100238.06;6124026;23;19935;-85
2022/05/11 02:39:41;;;;;;;;;;;;;;;11.06;100.00;100232.72;6124310;23;19909;-86
2022/05/11 02:42:07;;;;;;;;;;;;;;;11.01;100.00;100222.13;6099490;23;20359;-86
2022/05/11 02:44:32;;;;;;;;;;;;;;;10.94;100.00;100227.09;6075511;23;19909;-85
2022/05/11 02:46:57;;;;;;;;;;;;;;;10.96;100.00;100228.19;6123682;23;19924;-85
2022/05/11 02:49:23;;;;;;;;;;;;;;;10.91;100.00;100227.97;6099205;23;19909;-88
2022/05/11 02:51:48;;;;;;;;;;;;;;;10.91;100.00;100223.19;6123883;23;19920;-87
2022/05/11 02:54:14;;;;;;;;;;;;;;;10.87;100.00;100221.72;6123170;23;19917;-88
2022/05/11 02:56:39;;;;;;;;;;;;;;;10.87;100.00;100225.28;6124306;23;19912;-87
2022/05/11 02:59:04;;;;;;;;;;;;;;;10.89;100.00;100224.81;6125231;23;19948;-89
2022/05/11 03:01:30;;;;;;;;;;;;;;;10.93;100.00;100223.53;6123274;23;19913;-87
2022/05/11 03:03:55;;;;;;;;;;;;;;;11.02;100.00;100226.47;6124260;23;19916;-85
2022/05/11 03:06:21;;;;;;;;;;;;;;;11.23;100.00;100228.72;6124809;23;19913;-86
2022/05/11 03:08:46;;;;;;;;;;;;;;;11.31;100.00;100217.41;6124034;23;20236;-88
2022/05/11 03:11:11;;;;;;;;;;;;;;;11.39;100.00;100218.78;6124176;23;19963;-88
2022/05/11 03:13:37;;;;;;;;;;;;;;;11.34;100.00;100220.09;6123387;23;20367;-87
2022/05/11 03:16:02;;;;;;;;;;;;;;;11.22;100.00;100216.03;6123737;23;19913;-88
2022/05/11 03:18:28;;;;;;;;;;;;;;;11.25;100.00;100225.47;6124775;23;19920;-88
2022/05/11 03:20:56;;;;;;;;;;;;;;;11.24;100.00;100219.13;6124409;23;19912;-87
2022/05/11 03:23:22;;;;;;;;;;;;;;;11.18;100.00;100223.69;6098237;23;20374;-87
2022/05/11 03:25:47;;;;;;;;;;;;;;;11.10;100.00;100218.75;6124865;23;19916;-88
2022/05/11 03:28:13;;;;;;;;;;;;;;;11.02;100.00;100229.25;6125160;23;19936;-88
2022/05/11 03:30:38;;;;;;;;;;;;;;;11.01;100.00;100227.69;6122099;23;19917;-87
2022/05/11 03:35:48;;;;;;;;;;;;;;;10.77;100.00;100226.31;6097033;23;19941;-87
2022/05/11 03:38:13;;;;;;;;;;;;;;;10.73;100.00;100223.63;6123768;23;19916;-87
2022/05/11 03:40:38;;;;;;;;;;;;;;;10.68;100.00;100226.13;6097689;23;19920;-88
2022/05/11 03:43:04;;;;;;;;;;;;;;;10.73;100.00;100223.63;6097997;23;19913;-87
2022/05/11 03:45:29;;;;;;;;;;;;;;;10.68;100.00;100226.13;6099197;23;20236;-87
2022/05/11 03:47:55;;;;;;;;;;;;;;;10.72;100.00;100224.81;6124136;23;20369;-87
2022/05/11 03:50:22;;;;;;;;;;;;;;;10.71;100.00;100219.72;6124759;23;19910;-87
2022/05/11 03:52:48;;;;;;;;;;;;;;;10.74;100.00;100219.63;6124640;23;19951;-87
2022/05/11 03:55:13;;;;;;;;;;;;;;;10.81;100.00;100212.34;6098079;23;19917;-88
2022/05/11 03:57:39;;;;;;;;;;;;;;;10.87;100.00;100228.06;6122951;23;20240;-87
2022/05/11 04:00:06;;;;;;;;;;;;;;;10.92;100.00;100230.28;6098649;23;19913;-88
2022/05/11 04:02:38;;;;;;;;;;;;;;;10.92;100.00;100219.19;6098823;23;20389;-85
2022/05/11 04:05:04;;;;;;;;;;;;;;;10.98;100.00;100211.91;6124019;23;19920;-87
2022/05/11 04:07:29;;;;;;;;;;;;;;;10.98;100.00;100222.22;6097538;23;19940;-87
2022/05/11 04:09:54;;;;;;;;;;;;;;;10.97;100.00;100223.44;6124520;23;19913;-87
2022/05/11 04:12:20;;;;;;;;;;;;;;;10.99;100.00;100227.34;6124849;23;19963;-87
2022/05/11 04:14:45;;;;;;;;;;;;;;;11.00;100.00;100226.13;6097491;23;19920;-87
2022/05/11 04:17:10;;;;;;;;;;;;;;;11.03;100.00;100230.03;6097443;23;19913;-88
2022/05/11 04:19:36;;;;;;;;;;;;;;;11.09;100.00;100231.84;6097735;23;19919;-87
2022/05/11 04:22:02;;;;;;;;;;;;;;;11.12;100.00;100228.19;6097600;23;19920;-87
2022/05/11 04:24:30;;;;;;;;;;;;;;;11.19;100.00;100228.03;6073342;23;19913;-87
2022/05/11 04:26:55;;;;;;;;;;;;;;;11.23;100.00;100233.47;6123867;23;20350;-88
2022/05/11 04:29:21;;;;;;;;;;;;;;;11.24;100.00;100229.50;6122598;23;19912;-87
2022/05/11 04:31:52;;;;;;;;;;;;;;;11.28;100.00;100235.72;6123621;23;20284;-88
2022/05/11 04:34:17;;;;;;;;;;;;;;;11.33;100.00;100245.50;6098358;23;19959;-87
2022/05/11 04:36:43;;;;;;;;;;;;;;;11.38;100.00;100234.66;6122757;23;19909;-88
2022/05/11 04:39:08;;;;;;;;;;;;;;;11.45;100.00;100244.78;6123975;23;19975;-87
2022/05/11 04:41:34;;;;;;;;;;;;;;;11.49;100.00;100245.47;6120681;23;19912;-87
2022/05/11 04:43:59;;;;;;;;;;;;;;;11.54;100.00;100242.16;6121683;23;19913;-85
2022/05/11 04:46:24;;;;;;;;;;;;;;;11.61;100.00;100239.19;6095411;23;19964;-85
2022/05/11 04:48:50;;;;;;;;;;;;;;;11.70;100.00;100242.88;6121703;23;19913;-85
2022/05/11 04:51:15;;;;;;;;;;;;;;;11.86;100.00;100228.19;6119828;23;19976;-86
2022/05/11 04:53:40;;;;;;;;;;;;;;;11.97;100.00;100245.31;6093735;23;19919;-85
2022/05/11 04:56:06;;;;;;;;;;;;;;;12.11;100.00;100247.69;6119876;23;19920;-85
2022/05/11 04:58:31;;;;;;;;;;;;;;;12.27;100.00;100251.59;6093479;23;19916;-86
2022/05/11 05:00:57;;;;;;;;;;;;;;;12.43;100.00;100237.59;6093868;23;20007;-88
2022/05/11 05:03:22;;;;;;;;;;;;;;;12.60;100.00;100248.19;6099634;23;19917;-87
2022/05/11 05:05:48;;;;;;;;;;;;;;;12.74;100.00;100244.16;6119979;23;19916;-87
2022/05/11 05:08:13;;;;;;;;;;;;;;;12.86;100.00;100251.72;6118448;23;19917;-87
2022/05/11 05:10:39;;;;;;;;;;;;;;;13.03;100.00;100250.34;6118507;23;19919;-87
2022/05/11 05:13:06;;;;;;;;;;;;;;;13.25;100.00;100246.88;6118686;23;19913;-87
2022/05/11 05:31:24;;;;;;;;;;;;;;;15.08;98.15;100253.09;6162142;23;20318;-88
2022/05/11 05:33:55;;;;;;;;;;;;;;;15.32;96.69;100248.47;6160043;23;19971;-88
2022/05/11 05:36:20;;;;;;;;;;;;;;;15.57;95.50;100244.59;6162372;23;19923;-84
2022/05/11 05:38:46;;;;;;;;;;;;;;;15.73;94.96;100246.31;6160779;23;19991;-86
2022/05/11 05:41:11;;;;;;;;;;;;;;;15.96;94.33;100247.69;6158184;23;19955;-88
2022/05/11 05:43:37;;;;;;;;;;;;;;;16.12;92.99;100250.16;6160801;23;19913;-86
2022/05/11 05:46:02;;;;;;;;;;;;;;;16.31;90.77;100246.03;6160428;23;19923;-87
2022/05/11 05:48:28;;;;;;;;;;;;;;;16.52;88.65;100249.88;6135145;23;19916;-87
2022/05/11 05:51:00;;;;;;;;;;;;;;;16.61;86.51;100247.84;6161794;23;19913;-87
2022/05/11 05:53:25;;;;;;;;;;;;;;;16.88;85.48;100251.75;6159540;23;19920;-88
2022/05/11 05:55:51;;;;;;;;;;;;;;;17.13;85.54;100251.28;6157998;23;19920;-87
2022/05/11 05:58:16;;;;;;;;;;;;;;;17.35;83.32;100251.75;6157947;23;19992;-85
2022/05/11 06:00:42;;;;;;;;;;;;;;;17.48;82.85;100257.91;6159127;23;19913;-85
2022/05/11 06:03:08;;;;;;;;;;;;;;;17.66;81.69;100246.56;6158930;23;19976;-86
2022/05/11 06:05:34;;;;;;;;;;;;;;;17.68;80.01;100254.50;6159433;23;20363;-85
2022/05/11 06:07:59;;;;;;;;;;;;;;;17.83;80.91;100255.31;6158650;23;19917;-87
2022/05/11 06:10:25;;;;;;;;;;;;;;;18.00;80.07;100252.78;6157448;23;19924;-88
2022/05/11 06:12:51;;;;;;;;;;;;;;;18.19;80.17;100256.97;6157898;23;20259;-88
2022/05/11 06:15:16;;;;;;;;;;;;;;;18.33;79.24;100263.84;6159531;23;20000;-84
2022/05/11 06:17:41;;;;;;;;;;;;;;;18.43;78.70;100257.66;6159203;23;20332;-88
2022/05/11 06:20:09;;;;;;;;;;;;;;;18.33;79.36;100264.59;6159846;23;19916;-87
2022/05/11 06:22:35;;;;;;;;;;;;;;;18.49;78.67;100258.50;6159331;23;19924;-88
2022/05/11 06:25:01;;;;;;;;;;;;;;;18.49;78.21;100266.91;6160469;23;20059;-87
2022/05/11 06:27:26;;;;;;;;;;;;;;;18.74;77.54;100264.78;6154845;23;20255;-88
2022/05/11 06:29:59;;;;;;;;;;;;;;;18.96;76.62;100259.50;6153619;23;20290;-88
2022/05/11 06:32:24;;;;;;;;;;;;;;;19.03;77.03;100264.72;6129327;23;19917;-87
2022/05/11 06:34:51;;;;;;;;;;;;;;;19.17;77.16;100260.31;6155059;23;19923;-86
2022/05/11 06:37:16;;;;;;;;;;;;;;;19.33;77.42;100259.75;6155293;23;19912;-84
2022/05/11 06:39:42;;;;;;;;;;;;;;;19.42;76.57;100249.16;6154737;23;20059;-87
2022/05/11 06:42:08;;;;;;;;;;;;;;;19.61;73.79;100268.56;6155117;23;19924;-84
2022/05/11 06:44:33;;;;;;;;;;;;;;;19.71;73.73;100267.13;6153370;23;20252;-84
2022/05/11 06:46:59;;;;;;;;;;;;;;;19.44;74.77;100269.13;6155051;23;19975;-84
2022/05/11 06:49:25;;;;;;;;;;;;;;;19.63;72.33;100269.59;6154689;23;19964;-84
2022/05/11 06:51:50;;;;;;;;;;;;;;;19.76;72.21;100264.38;6153311;23;19919;-84
2022/05/11 06:59:44;;;;;;;;;;;;;;;20.29;70.78;100269.56;6154551;23;20430;-88
2022/05/11 07:02:09;;;;;;;;;;;;;;;20.62;70.77;100276.75;6154624;23;19912;-88
2022/05/11 07:04:37;;;;;;;;;;;;;;;20.75;69.11;100268.63;6154516;23;19920;-89
2022/05/11 07:07:03;;;;;;;;;;;;;;;20.64;70.24;100279.84;6155028;23;19917;-88
2022/05/11 07:09:33;;;;;;;;;;;;;;;20.69;69.95;100276.28;6154670;23;20399;-89
2022/05/11 07:12:17;;;;;;;;;;;;;;;20.94;69.54;100270.59;6154721;23;19972;-88
2022/05/11 07:14:43;;;;;;;;;;;;;;;21.27;70.29;100274.91;6154224;23;19975;-88
2022/05/11 07:17:08;;;;;;;;;;;;;;;21.33;67.94;100262.38;6155054;23;19917;-89
2022/05/11 07:19:36;;;;;;;;;;;;;;;21.46;68.16;100270.38;6154159;23;19917;-89
2022/05/11 07:22:02;;;;;;;;;;;;;;;21.84;67.08;100266.13;6153473;23;20365;-89
2022/05/11 07:24:27;;;;;;;;;;;;;;;22.07;66.04;100262.13;6154559;23;19921;-89
2022/05/11 07:26:54;;;;;;;;;;;;;;;22.41;64.47;100267.78;6152492;23;19917;-89
2022/05/11 07:29:19;;;;;;;;;;;;;;;22.53;63.24;100255.19;6152679;23;20002;-89
2022/05/11 07:31:46;;;;;;;;;;;;;;;22.87;62.61;100259.56;6154458;23;20023;-84
2022/05/11 07:34:12;;;;;;;;;;;;;;;23.00;62.54;100262.63;6152928;23;19975;-89
2022/05/11 07:36:37;;;;;;;;;;;;;;;22.92;61.39;100258.03;6154223;23;19921;-89
2022/05/11 07:39:02;;;;;;;;;;;;;;;23.03;61.52;100253.09;6154029;23;19992;-89
2022/05/11 07:41:28;;;;;;;;;;;;;;;23.04;61.37;100263.16;6154301;23;19917;-89
2022/05/11 07:43:55;;;;;;;;;;;;;;;23.17;59.93;100254.84;6154372;23;19912;-88
2022/05/11 07:46:21;;;;;;;;;;;;;;;23.32;60.73;100253.78;6154792;23;20358;-90
2022/05/11 07:48:47;;;;;;;;;;;;;;;23.43;60.30;100253.78;6154022;23;19913;-90
2022/05/11 07:51:13;;;;;;;;;;;;;;;23.39;60.38;100253.25;6154707;23;20402;-84
2022/05/11 07:53:38;;;;;;;;;;;;;;;23.58;60.08;100254.22;6153662;23;19920;-90
2022/05/11 08:01:32;;;;;;;;;;;;;;;23.95;57.91;100248.88;6154121;23;20331;-90
2022/05/11 08:03:57;;;;;;;;;;;;;;;24.11;58.17;100247.97;6154162;23;19919;-90
2022/05/11 08:06:23;;;;;;;;;;;;;;;24.27;57.52;100248.41;6154662;23;19948;-90
2022/05/11 08:08:49;;;;;;;;;;;;;;;24.42;55.95;100241.09;6153885;23;19916;-91
2022/05/11 08:11:14;;;;;;;;;;;;;;;24.43;58.40;100242.59;6154552;23;19920;-91
2022/05/11 08:13:40;;;;;;;;;;;;;;;24.63;57.82;100247.06;6153495;23;19943;-90
2022/05/11 08:16:05;;;;;;;;;;;;;;;24.44;56.21;100254.72;6154450;23;20236;-90
2022/05/11 08:18:31;;;;;;;;;;;;;;;24.56;57.42;100253.34;6154106;23;19920;-90
2022/05/11 08:20:56;;;;;;;;;;;;;;;24.86;56.38;100250.50;6152356;23;20299;-91
2022/05/11 08:23:22;;;;;;;;;;;;;;;25.13;54.54;100251.50;6153728;23;20340;-91
2022/05/11 08:25:49;;;;;;;;;;;;;;;25.14;54.56;100247.38;6153940;23;19920;-90
2022/05/11 08:28:15;;;;;;;;;;;;;;;25.19;52.77;100257.91;6152246;23;19988;-91
2022/05/11 08:33:27;;;;;;;;;;;;;;;25.44;53.22;100248.81;6153437;23;19955;-85
2022/05/11 08:35:55;;;;;;;;;;;;;;;25.63;51.92;100248.09;6153678;23;19921;-84
2022/05/11 08:38:21;;;;;;;;;;;;;;;25.81;50.89;100250.16;6152386;23;19931;-85
2022/05/11 08:40:51;;;;;;;;;;;;;;;25.88;50.91;100249.56;6153714;23;19916;-85
2022/05/11 08:43:17;;;;;;;;;;;;;;;26.17;50.09;100233.59;6152030;23;19951;-84
2022/05/11 08:45:48;;;;;;;;;;;;;;;26.40;49.39;100252.66;6153517;23;19917;-85
2022/05/11 08:48:18;;;;;;;;;;;;;;;26.20;48.24;100249.63;6152122;23;19927;-91
2022/05/11 08:50:44;;;;;;;;;;;;;;;26.06;47.83;100245.94;6152126;23;19928;-84
2022/05/11 08:53:21;;;;;;;;;;;;;;;26.22;48.29;100244.94;6152348;23;19916;-84
2022/05/11 08:55:48;;;;;;;;;;;;;;;26.01;49.35;100246.78;6153484;23;19916;-84
2022/05/11 08:58:21;;;;;;;;;;;;;;;25.87;46.55;100245.94;6152213;23;19987;-84
2022/05/11 09:00:47;;;;;;;;;;;;;;;25.69;48.93;100245.94;6153474;23;19950;-84
2022/05/11 09:03:30;;;;;;;;;;;;;;;25.52;49.76;100249.75;6152204;23;19912;-84
2022/05/11 09:05:57;;;;;;;;;;;;;;;25.58;49.14;100241.19;6152072;23;19917;-84
2022/05/11 09:08:22;;;;;;;;;;;;;;;25.81;49.02;100233.88;6153643;23;20331;-84
2022/05/11 09:10:48;;;;;;;;;;;;;;;26.01;48.86;100241.09;6153661;23;19923;-91
2022/05/11 09:13:13;;;;;;;;;;;;;;;26.14;47.23;100240.38;6153670;23;19923;-91
2022/05/11 09:15:46;;;;;;;;;;;;;;;26.33;47.87;100243.97;6153498;23;19917;-92
2022/05/11 09:18:11;;;;;;;;;;;;;;;26.68;45.32;100237.19;6153664;23;19921;-90
2022/05/11 09:20:37;;;;;;;;;;;;;;;26.83;43.74;100241.03;6153559;23;19995;-92
2022/05/11 09:23:03;;;;;;;;;;;;;;;26.63;44.29;100240.91;6152490;23;19920;-92
2022/05/11 09:25:32;;;;;;;;;;;;;;;27.04;44.95;100244.06;6153630;23;19920;-91
2022/05/11 09:28:17;;;;;;;;;;;;;;;26.72;44.76;100241.25;6151768;23;19917;-91
2022/05/11 09:30:58;;;;;;;;;;;;;;;27.07;44.01;100237.25;6151934;23;19920;-85
2022/05/11 09:33:25;;;;;;;;;;;;;;;27.27;44.21;100242.28;6153346;23;19927;-84
2022/05/11 09:35:51;;;;;;;;;;;;;;;26.77;43.20;100245.31;6153581;23;20332;-84
2022/05/11 09:38:19;;;;;;;;;;;;;;;26.34;46.10;100242.66;6151904;23;19949;-84
2022/05/11 09:40:47;;;;;;;;;;;;;;;26.59;44.48;100241.22;6153155;23;20251;-84
2022/05/11 09:43:13;;;;;;;;;;;;;;;26.92;43.88;100234.19;6153321;23;20391;-84
2022/05/11 09:45:42;;;;;;;;;;;;;;;27.23;43.12;100226.84;6151490;23;19948;-84
2022/05/11 09:48:24;;;;;;;;;;;;;;;27.35;42.24;100219.59;6153781;23;19917;-84
2022/05/11 09:50:54;;;;;;;;;;;;;;;27.21;43.53;100233.09;6153148;23;19971;-84
2022/05/11 09:53:27;;;;;;;;;;;;;;;26.96;42.68;100223.25;6151819;23;19916;-83
2022/05/11 09:55:53;;;;;;;;;;;;;;;26.82;42.65;100219.56;6153209;23;19940;-84
2022/05/11 09:58:32;;;;;;;;;;;;;;;27.03;42.97;100218.97;6151937;23;20247;-84
2022/05/11 10:01:30;;;;;;;;;;;;;;;26.83;42.27;100226.81;6152060;23;19916;-84
2022/05/11 10:03:57;;;;;;;;;;;;;;;26.99;42.91;100215.69;6089909;23;20573;-84
2022/05/11 10:06:22;;;;;;;;;;;;;;;27.17;42.75;100214.81;6151940;23;19917;-92
2022/05/11 10:08:48;;;;;;;;;;;;;;;27.42;40.08;100207.53;6152904;23;20196;-91
2022/05/11 10:11:19;;;;;;;;;;;;;;;27.53;39.71;100217.97;6155441;23;19916;-92
2022/05/11 10:13:44;;;;;;;;;;;;;;;27.55;39.32;100212.47;6128236;23;19923;-92
2022/05/11 10:22:02;;;;;;;;;;;;;;;27.94;40.09;100223.00;6154873;23;20293;-92
2022/05/11 10:24:31;;;;;;;;;;;;;;;28.04;38.43;100210.56;6153837;23;19927;-92
2022/05/11 10:26:59;;;;;;;;;;;;;;;28.06;38.05;100212.88;6154691;23;20320;-92
2022/05/11 10:29:27;;;;;;;;;;;;;;;28.04;37.64;100207.72;6154911;23;19917;-92
2022/05/11 10:31:54;;;;;;;;;;;;;;;27.86;36.65;100205.84;6154490;23;19920;-92
2022/05/11 10:34:20;;;;;;;;;;;;;;;27.39;37.24;100202.94;6155066;23;19923;-93
2022/05/11 10:37:00;;;;;;;;;;;;;;;27.52;38.98;100200.09;6154892;23;19917;-93
2022/05/11 10:39:42;;;;;;;;;;;;;;;27.41;35.88;100203.16;6153550;23;20357;-93
2022/05/11 10:42:07;;;;;;;;;;;;;;;27.41;36.55;100191.78;6153585;23;19917;-84
2022/05/11 10:44:53;;;;;;;;;;;;;;;27.54;37.25;100197.47;6154956;23;19999;-84
2022/05/11 10:47:38;;;;;;;;;;;;;;;27.54;35.71;100194.59;6134273;23;19921;-84
2022/05/11 10:50:16;;;;;;;;;;;;;;;27.61;37.04;100196.81;6154674;23;19920;-83
2022/05/11 10:52:52;;;;;;;;;;;;;;;27.78;37.67;100182.19;6154482;23;20014;-84
2022/05/11 10:55:17;;;;;;;;;;;;;;;27.93;37.71;100181.56;6151842;23;19916;-84
2022/05/11 10:57:46;;;;;;;;;;;;;;;27.59;38.74;100170.94;6153261;23;19944;-83
2022/05/11 11:00:15;;;;;;;;;;;;;;;27.46;38.71;100170.19;6153304;23;19943;-84
2022/05/11 11:02:59;;;;;;;;;;;;;;;27.39;38.87;100177.31;6151833;23;19920;-91
2022/05/11 11:05:26;;;;;;;;;;;;;;;27.30;38.75;100178.53;6151578;23;19917;-92
2022/05/11 11:07:55;;;;;;;;;;;;;;;26.78;39.03;100179.28;6151923;23;19920;-91
2022/05/11 11:10:37;;;;;;;;;;;;;;;26.72;40.12;100178.66;6153379;23;20263;-90
2022/05/11 11:13:06;;;;;;;;;;;;;;;26.98;39.82;100175.06;6152005;23;19948;-93
2022/05/11 11:15:32;;;;;;;;;;;;;;;27.22;39.55;100162.66;6153266;23;19948;-91
2022/05/11 11:17:58;;;;;;;;;;;;;;;27.30;39.60;100172.06;6150316;23;19976;-93
2022/05/11 11:20:23;;;;;;;;;;;;;;;27.12;38.37;100170.13;6152960;23;19919;-85
2022/05/11 11:23:08;;;;;;;;;;;;;;;27.34;37.80;100163.94;6128413;23;19917;-84
2022/05/11 11:25:46;;;;;;;;;;;;;;;27.65;36.88;100168.72;6154374;23;19921;-84
2022/05/11 11:28:14;;;;;;;;;;;;;;;27.99;35.75;100156.50;6154277;23;19999;-84
2022/05/11 11:30:40;;;;;;;;;;;;;;;27.94;36.92;100160.28;6154025;23;19979;-84
2022/05/11 11:33:09;;;;;;;;;;;;;;;28.03;37.26;100162.63;6152595;23;20407;-84
2022/05/11 11:35:35;;;;;;;;;;;;;;;27.75;36.70;100166.16;6153033;23;20466;-84
2022/05/11 11:38:01;;;;;;;;;;;;;;;27.49;37.07;100149.94;6151613;23;19980;-85
2022/05/11 11:40:27;;;;;;;;;;;;;;;27.53;38.21;100153.22;6153212;23;20043;-92
2022/05/11 11:42:53;;;;;;;;;;;;;;;27.40;37.49;100141.81;6153141;23;19917;-93
2022/05/11 11:45:25;;;;;;;;;;;;;;;27.65;36.29;100157.34;6152979;23;20003;-92
2022/05/11 11:48:01;;;;;;;;;;;;;;;27.85;34.44;100146.50;6152662;23;19927;-93
2022/05/11 11:50:43;;;;;;;;;;;;;;;27.74;35.74;100145.44;6153099;23;19924;-92
2022/05/11 11:53:11;;;;;;;;;;;;;;;28.00;35.14;100140.94;6154776;23;20363;-93
2022/05/11 11:55:36;;;;;;;;;;;;;;;28.45;36.18;100141.38;6150337;23;19971;-92
2022/05/11 11:58:20;;;;;;;;;;;;;;;28.64;34.65;100138.25;6154415;23;19920;-91
2022/05/11 12:00:46;;;;;;;;;;;;;;;28.60;34.25;100141.47;6153467;23;19916;-84
2022/05/11 12:03:23;;;;;;;;;;;;;;;28.07;37.41;100143.09;6153562;23;20020;-83
2022/05/11 12:05:50;;;;;;;;;;;;;;;27.83;37.71;100139.28;6127994;23;20399;-84
2022/05/11 12:16:46;;;;;;;;;;;;;;;28.45;33.43;100123.47;6128739;23;19924;-84
2022/05/11 12:19:12;;;;;;;;;;;;;;;28.75;33.62;100129.44;6152505;23;19917;-93
2022/05/11 12:21:38;;;;;;;;;;;;;;;28.93;33.14;100130.47;6150927;23;20233;-84
2022/05/11 12:24:05;;;;;;;;;;;;;;;28.93;31.49;100130.47;6151723;23;19919;-84
2022/05/11 12:26:32;;;;;;;;;;;;;;;29.06;31.54;100133.22;6152589;23;19986;-83
2022/05/11 12:32:01;;;;;;;;;;;;;;;29.40;30.12;100119.44;6152058;23;19921;-84
2022/05/11 12:34:30;;;;;;;;;;;;;;;29.58;31.30;100117.59;6152184;23;19923;-83
2022/05/11 12:36:55;;;;;;;;;;;;;;;29.59;31.67;100114.19;6153766;23;20357;-83
2022/05/11 12:39:31;;;;;;;;;;;;;;;29.83;30.60;100110.03;6153861;23;20003;-94
2022/05/11 12:41:56;;;;;;;;;;;;;;;29.32;30.66;100107.25;6152395;23;20397;-94
2022/05/11 12:44:25;;;;;;;;;;;;;;;28.76;31.13;100113.03;6154022;23;19917;-93
2022/05/11 12:46:52;;;;;;;;;;;;;;;28.65;31.65;100097.75;6153613;23;20423;-94
2022/05/11 12:49:18;;;;;;;;;;;;;;;28.62;32.02;100093.16;6128620;23;20263;-95
2022/05/11 12:51:49;;;;;;;;;;;;;;;28.68;30.73;100096.63;6153030;23;19917;-95
2022/05/11 12:54:25;;;;;;;;;;;;;;;28.59;31.38;100099.25;6152751;23;19956;-94
2022/05/11 12:57:02;;;;;;;;;;;;;;;27.90;32.86;100097.94;6153884;23;19917;-84
2022/05/11 12:59:28;;;;;;;;;;;;;;;27.77;33.66;100090.19;6154180;23;19912;-94
2022/05/11 13:02:25;;;;;;;;;;;;;;;28.10;34.39;100082.16;6153469;23;19932;-95
2022/05/11 13:04:54;;;;;;;;;;;;;;;28.07;33.18;100083.22;6150838;23;19917;-92
2022/05/11 13:07:22;;;;;;;;;;;;;;;27.71;33.27;100081.00;6151745;23;19913;-94
2022/05/11 13:09:49;;;;;;;;;;;;;;;27.73;33.88;100075.53;6151245;23;20322;-95
2022/05/11 13:12:14;;;;;;;;;;;;;;;27.86;33.61;100074.69;6152965;23;19916;-94
2022/05/11 13:14:59;;;;;;;;;;;;;;;27.78;33.66;100068.91;6151911;23;19917;-83
2022/05/11 13:17:26;;;;;;;;;;;;;;;27.46;33.24;100065.53;6152491;23;19923;-96
2022/05/11 13:19:53;;;;;;;;;;;;;;;27.42;34.50;100067.94;6152384;23;20255;-94
2022/05/11 13:22:22;;;;;;;;;;;;;;;27.33;34.89;100057.81;6153205;23;19921;-95
2022/05/11 13:24:51;;;;;;;;;;;;;;;27.71;35.21;100063.16;6151771;23;19927;-95
2022/05/11 13:27:29;;;;;;;;;;;;;;;28.09;34.43;100052.09;6152997;23;19944;-95
2022/05/11 13:30:20;;;;;;;;;;;;;;;28.17;32.99;100042.28;6151546;23;19917;-95
2022/05/11 13:32:50;;;;;;;;;;;;;;;28.18;33.92;100057.31;6148204;23;19940;-94